Time;durP1;ratioP1;P1;durP2;ratioP2;P2;SDS_P1;SDS_P2;PMS_P1;PMS_P2;Temp;Humidity;BMP_temperature;BMP_pressure;BME280_temperature;BME280_humidity;BME280_pressure;Samples;Min_cycle;Max_cycle;Signal;HPM_P1;HPM_P2
2024/01/04 00:01:42;;;;;;;;;;;;;;;11.09;99.53;99473.47;7273678;19;22872;-66
2024/01/04 00:04:09;;;;;;;;;;;;;;;11.11;100.00;99474.09;7296874;19;20340;-66
2024/01/04 00:06:40;;;;;;;;;;;;;;;11.10;99.79;99483.81;7296496;19;19972;-66
2024/01/04 00:09:07;;;;;;;;;;;;;;;11.07;100.00;99478.13;7287937;19;20504;-68
2024/01/04 00:11:34;;;;;;;;;;;;;;;11.05;99.33;99488.03;7273278;19;19952;-65
2024/01/04 00:14:02;;;;;;;;;;;;;;;11.02;98.84;99486.56;7286003;19;19997;-65
2024/01/04 00:16:32;;;;;;;;;;;;;;;11.02;98.67;99491.84;7286692;19;22748;-68
2024/01/04 00:18:58;;;;;;;;;;;;;;;11.03;98.82;99498.72;7298421;19;19930;-65
2024/01/04 00:21:26;;;;;;;;;;;;;;;11.05;98.62;99501.19;7298341;19;19980;-66
2024/01/04 00:23:52;;;;;;;;;;;;;;;11.05;98.63;99501.19;7284241;19;19925;-65
2024/01/04 00:26:20;;;;;;;;;;;;;;;11.05;98.46;99506.44;7290378;19;20483;-66
2024/01/04 00:28:47;;;;;;;;;;;;;;;11.05;98.79;99514.34;7298281;19;19926;-65
2024/01/04 00:31:14;;;;;;;;;;;;;;;11.10;99.70;99514.59;7292711;19;20291;-66
2024/01/04 00:33:40;;;;;;;;;;;;;;;11.06;98.03;99511.53;7279961;19;20247;-66
2024/01/04 00:36:13;;;;;;;;;;;;;;;11.07;98.85;99522.88;7281270;19;20563;-65
2024/01/04 00:38:43;;;;;;;;;;;;;;;11.05;98.73;99524.88;7282290;19;19922;-67
2024/01/04 00:41:10;;;;;;;;;;;;;;;11.03;98.45;99519.78;7279475;19;20269;-67
2024/01/04 00:43:38;;;;;;;;;;;;;;;11.03;98.61;99516.34;7298086;19;19925;-65
2024/01/04 00:46:04;;;;;;;;;;;;;;;11.03;99.12;99519.78;7285846;19;19942;-65
2024/01/04 00:48:31;;;;;;;;;;;;;;;11.03;99.56;99519.78;7283358;19;19938;-66
2024/01/04 00:51:01;;;;;;;;;;;;;;;11.03;99.73;99527.69;7293460;19;20486;-66
2024/01/04 00:53:27;;;;;;;;;;;;;;;11.02;99.66;99530.53;7274800;19;20628;-65
2024/01/04 00:55:54;;;;;;;;;;;;;;;11.02;100.00;99533.16;7292846;19;19919;-65
2024/01/04 00:58:21;;;;;;;;;;;;;;;10.93;99.00;99535.06;7278904;19;19919;-65
2024/01/04 01:00:48;;;;;;;;;;;;;;;10.92;99.02;99540.53;7281281;19;19927;-64
2024/01/04 01:03:15;;;;;;;;;;;;;;;10.90;99.04;99542.53;7295414;19;19919;-67
2024/01/04 01:05:45;;;;;;;;;;;;;;;10.86;98.75;99541.28;7291066;19;20299;-67
2024/01/04 01:08:12;;;;;;;;;;;;;;;10.82;98.58;99540.81;7013828;19;5704088;-65
2024/01/04 01:10:39;;;;;;;;;;;;;;;10.82;98.52;99551.34;7285545;19;20066;-67
2024/01/04 01:13:06;;;;;;;;;;;;;;;10.83;98.43;99549.53;7296791;19;19929;-66
2024/01/04 01:15:33;;;;;;;;;;;;;;;10.80;97.77;99548.09;7318678;19;20249;-67
2024/01/04 01:18:02;;;;;;;;;;;;;;;10.81;98.10;99552.38;7295282;19;20389;-66
2024/01/04 01:20:29;;;;;;;;;;;;;;;10.81;98.46;99556.81;7277762;19;19921;-66
2024/01/04 01:22:56;;;;;;;;;;;;;;;10.81;99.08;99556.81;7286202;19;19918;-67
2024/01/04 01:25:28;;;;;;;;;;;;;;;10.78;99.15;99565.88;7298817;19;20437;-65
2024/01/04 01:27:56;;;;;;;;;;;;;;;10.77;99.01;99563.44;7293277;19;22699;-67
2024/01/04 01:30:23;;;;;;;;;;;;;;;10.75;98.66;99563.63;7302287;19;19926;-66
2024/01/04 01:32:50;;;;;;;;;;;;;;;10.74;99.23;99567.25;7298058;19;19918;-65
2024/01/04 01:35:17;;;;;;;;;;;;;;;10.70;98.90;99573.88;7285697;19;19926;-67
2024/01/04 01:37:44;;;;;;;;;;;;;;;10.71;99.44;99576.34;7279216;19;19927;-66
2024/01/04 01:40:11;;;;;;;;;;;;;;;10.71;99.19;99580.78;7302187;19;19949;-67
2024/01/04 01:42:38;;;;;;;;;;;;;;;10.72;99.18;99583.22;7292118;19;19922;-67
2024/01/04 01:45:11;;;;;;;;;;;;;;;10.73;98.69;99584.84;7293946;19;21579;-65
2024/01/04 01:47:39;;;;;;;;;;;;;;;10.75;98.49;99589.94;7288737;19;19930;-65
2024/01/04 01:50:07;;;;;;;;;;;;;;;10.80;99.92;99592.84;7286225;19;20410;-65
2024/01/04 01:52:35;;;;;;;;;;;;;;;10.83;99.85;99594.25;7292106;19;19922;-66
2024/01/04 01:55:03;;;;;;;;;;;;;;;10.85;99.17;99603.63;7304372;19;19922;-68
2024/01/04 01:57:32;;;;;;;;;;;;;;;10.82;98.86;99600.53;7275113;19;19919;-67
2024/01/04 02:00:03;;;;;;;;;;;;;;;10.84;98.73;99593.25;7289288;19;21210;-68
2024/01/04 02:02:31;;;;;;;;;;;;;;;10.88;99.20;99605.88;7305285;19;19919;-67
2024/01/04 02:05:06;;;;;;;;;;;;;;;10.90;98.85;99609.13;7297109;19;19926;-66
2024/01/04 02:07:33;;;;;;;;;;;;;;;10.91;98.72;99605.50;7295918;19;19922;-66
2024/01/04 02:10:00;;;;;;;;;;;;;;;10.91;98.65;99610.78;7314425;19;20535;-67
2024/01/04 02:12:27;;;;;;;;;;;;;;;10.92;98.58;99620.28;7307865;19;20022;-66
2024/01/04 02:14:54;;;;;;;;;;;;;;;10.94;98.89;99610.41;7283400;19;19918;-69
2024/01/04 02:17:21;;;;;;;;;;;;;;;10.94;98.52;99613.03;7283370;19;20967;-67
2024/01/04 02:19:49;;;;;;;;;;;;;;;10.95;98.61;99614.66;7296908;19;20027;-65
2024/01/04 02:22:17;;;;;;;;;;;;;;;10.98;99.08;99613.47;7284894;19;19918;-66
2024/01/04 02:24:44;;;;;;;;;;;;;;;10.96;98.94;99613.66;7302164;19;19946;-66
2024/01/04 02:27:12;;;;;;;;;;;;;;;10.96;98.73;99610.22;7309109;19;21262;-68
2024/01/04 02:29:39;;;;;;;;;;;;;;;10.94;98.77;99625.38;7317612;19;20023;-66
2024/01/04 02:32:06;;;;;;;;;;;;;;;10.98;99.36;99622.19;7309270;19;19930;-66
2024/01/04 02:34:33;;;;;;;;;;;;;;;11.00;99.75;99625.44;7297875;19;20183;-65
2024/01/04 02:37:00;;;;;;;;;;;;;;;11.03;99.00;99634.78;7279909;19;20754;-65
2024/01/04 02:39:27;;;;;;;;;;;;;;;11.01;98.61;99634.97;7294900;19;19941;-65
2024/01/04 02:41:54;;;;;;;;;;;;;;;11.00;98.14;99637.78;7305121;19;19927;-66
2024/01/04 02:44:21;;;;;;;;;;;;;;;10.97;97.78;99643.44;7302265;19;20291;-65
2024/01/04 02:46:49;;;;;;;;;;;;;;;10.96;97.21;99642.63;7296968;19;19933;-65
2024/01/04 02:49:15;;;;;;;;;;;;;;;10.95;97.48;99635.72;7302916;19;20656;-66
2024/01/04 02:51:43;;;;;;;;;;;;;;;10.95;97.45;99643.63;7278234;19;19947;-65
2024/01/04 02:54:10;;;;;;;;;;;;;;;10.96;97.64;99649.69;7295595;19;19923;-66
2024/01/04 02:56:37;;;;;;;;;;;;;;;10.97;97.68;99646.06;7292849;19;19934;-65
2024/01/04 02:59:07;;;;;;;;;;;;;;;10.93;96.88;99653.50;7280827;19;20311;-66
2024/01/04 03:01:34;;;;;;;;;;;;;;;10.92;96.84;99657.13;7286737;19;19919;-65
2024/01/04 03:04:01;;;;;;;;;;;;;;;10.95;97.09;99661.22;7299538;19;20169;-65
2024/01/04 03:06:30;;;;;;;;;;;;;;;10.94;96.46;99654.31;7301373;19;20283;-68
2024/01/04 03:08:57;;;;;;;;;;;;;;;10.98;96.57;99666.91;7282624;19;19921;-66
2024/01/04 03:11:24;;;;;;;;;;;;;;;11.01;97.18;99665.75;7298348;19;19919;-66
2024/01/04 03:13:50;;;;;;;;;;;;;;;10.99;96.36;99675.63;7296967;19;19925;-65
2024/01/04 03:16:19;;;;;;;;;;;;;;;10.98;96.23;99679.25;7293793;19;20529;-65
2024/01/04 03:18:46;;;;;;;;;;;;;;;10.97;95.68;99678.44;7307706;19;19918;-66
2024/01/04 03:21:14;;;;;;;;;;;;;;;10.95;95.36;99677.81;7298809;19;20861;-66
2024/01/04 03:23:41;;;;;;;;;;;;;;;10.95;95.17;99677.00;7292390;19;19967;-66
2024/01/04 03:26:07;;;;;;;;;;;;;;;10.95;95.58;99675.19;7298006;19;19978;-65
2024/01/04 03:28:34;;;;;;;;;;;;;;;10.97;96.38;99675.03;7291268;19;19922;-66
2024/01/04 03:31:01;;;;;;;;;;;;;;;10.99;96.54;99681.72;7292435;19;19954;-65
2024/01/04 03:33:28;;;;;;;;;;;;;;;10.98;95.32;99693.25;7299524;19;20502;-65
2024/01/04 03:35:55;;;;;;;;;;;;;;;11.01;95.64;99692.88;7309811;19;20542;-66
2024/01/04 03:38:22;;;;;;;;;;;;;;;11.02;96.42;99705.03;7299775;19;20637;-65
2024/01/04 03:40:49;;;;;;;;;;;;;;;11.03;96.19;99698.78;7294920;19;19918;-66
2024/01/04 03:43:16;;;;;;;;;;;;;;;10.98;94.61;99705.56;7297126;19;20241;-67
2024/01/04 03:45:43;;;;;;;;;;;;;;;10.95;94.58;99708.59;7296469;19;21097;-64
2024/01/04 03:48:09;;;;;;;;;;;;;;;10.93;94.83;99707.94;7277433;19;19926;-65
2024/01/04 03:50:37;;;;;;;;;;;;;;;10.95;95.11;99714.66;7299087;19;19971;-66
2024/01/04 03:53:04;;;;;;;;;;;;;;;10.95;95.40;99713.84;7303325;19;20031;-66
2024/01/04 03:55:31;;;;;;;;;;;;;;;10.90;93.64;99714.41;7298003;19;20498;-66
2024/01/04 03:57:58;;;;;;;;;;;;;;;10.88;93.85;99723.47;7284612;19;19926;-66
2024/01/04 04:00:25;;;;;;;;;;;;;;;10.91;95.22;99721.31;7285753;19;19927;-66
2024/01/04 04:02:52;;;;;;;;;;;;;;;10.89;94.40;99728.56;7288993;19;20407;-65
2024/01/04 04:05:19;;;;;;;;;;;;;;;10.86;93.85;99718.41;7291016;19;20335;-66
2024/01/04 04:07:46;;;;;;;;;;;;;;;10.81;93.58;99725.22;7292073;19;19922;-65
2024/01/04 04:10:12;;;;;;;;;;;;;;;10.77;93.65;99739.72;7284245;19;21607;-66
2024/01/04 04:12:39;;;;;;;;;;;;;;;10.77;94.19;99755.50;7287845;19;20043;-65
2024/01/04 04:15:10;;;;;;;;;;;;;;;10.73;94.31;99755.03;7289896;19;19926;-66
2024/01/04 04:17:37;;;;;;;;;;;;;;;10.69;93.98;99756.41;7305045;19;19922;-66
2024/01/04 04:20:04;;;;;;;;;;;;;;;10.65;93.69;99757.75;7282425;19;19923;-66
2024/01/04 04:22:31;;;;;;;;;;;;;;;10.63;94.56;99760.56;7291633;19;20585;-66
2024/01/04 04:24:58;;;;;;;;;;;;;;;10.52;93.98;99761.00;7301514;19;20394;-65
2024/01/04 04:27:25;;;;;;;;;;;;;;;10.48;93.86;99761.53;7282345;19;20426;-65
2024/01/04 04:29:51;;;;;;;;;;;;;;;10.47;94.82;99758.09;7293563;19;20746;-66
2024/01/04 04:32:19;;;;;;;;;;;;;;;10.39;93.57;99757.34;7293495;19;19921;-66
2024/01/04 04:34:45;;;;;;;;;;;;;;;10.37;93.88;99756.69;7297514;19;19921;-65
2024/01/04 04:37:14;;;;;;;;;;;;;;;10.29;93.54;99757.59;7290207;19;19982;-65
2024/01/04 04:39:41;;;;;;;;;;;;;;;10.26;93.37;99760.56;7299584;19;20530;-65
2024/01/04 04:42:08;;;;;;;;;;;;;;;10.23;94.19;99772.28;7287777;19;20360;-65
2024/01/04 04:44:35;;;;;;;;;;;;;;;10.22;94.80;99769.81;7299232;19;20512;-64
2024/01/04 04:47:02;;;;;;;;;;;;;;;10.24;94.99;99778.34;7293784;19;19926;-65
2024/01/04 04:49:29;;;;;;;;;;;;;;;10.22;95.40;99778.50;7299767;19;19919;-64
2024/01/04 04:51:56;;;;;;;;;;;;;;;10.22;95.41;99783.78;7277791;19;19923;-66
2024/01/04 04:54:24;;;;;;;;;;;;;;;10.21;95.20;99783.94;7290367;19;20335;-65
2024/01/04 04:56:51;;;;;;;;;;;;;;;10.16;94.60;99794.16;7288077;19;20342;-65
2024/01/04 04:59:18;;;;;;;;;;;;;;;10.15;94.40;99792.53;7287661;19;19927;-65
2024/01/04 05:01:45;;;;;;;;;;;;;;;10.12;94.63;99791.03;7299678;19;19919;-66
2024/01/04 05:04:12;;;;;;;;;;;;;;;10.09;94.66;99787.97;7285228;19;20305;-65
2024/01/04 05:06:39;;;;;;;;;;;;;;;10.05;94.97;99790.13;7284475;19;19926;-66
2024/01/04 05:09:07;;;;;;;;;;;;;;;10.03;95.40;99792.09;7299422;19;20380;-66
2024/01/04 05:11:35;;;;;;;;;;;;;;;10.00;94.90;99787.22;7293444;19;20383;-66
2024/01/04 05:14:04;;;;;;;;;;;;;;;9.99;94.89;99782.13;7300027;19;20486;-66
2024/01/04 05:16:31;;;;;;;;;;;;;;;9.99;95.43;99793.44;7288642;19;20002;-67
2024/01/04 05:18:58;;;;;;;;;;;;;;;9.98;95.42;99791.81;7293629;19;19918;-65
2024/01/04 05:21:31;;;;;;;;;;;;;;;9.97;95.21;99795.41;7279540;19;19923;-66
2024/01/04 05:23:58;;;;;;;;;;;;;;;9.95;94.83;99789.53;7284876;19;20295;-66
2024/01/04 05:26:25;;;;;;;;;;;;;;;9.94;94.78;99803.66;7289255;19;19998;-67
2024/01/04 05:28:52;;;;;;;;;;;;;;;9.95;95.23;99805.31;7289954;19;19945;-66
2024/01/04 05:31:22;;;;;;;;;;;;;;;9.96;95.71;99812.16;7303918;19;20631;-66
2024/01/04 05:33:49;;;;;;;;;;;;;;;9.95;95.76;99820.25;7314632;19;20286;-66
2024/01/04 05:36:15;;;;;;;;;;;;;;;9.93;94.68;99822.22;7313746;19;19922;-65
2024/01/04 05:38:42;;;;;;;;;;;;;;;9.87;94.38;99827.19;7278594;19;19975;-67
2024/01/04 05:41:09;;;;;;;;;;;;;;;9.85;94.25;99823.09;7300017;19;20492;-66
2024/01/04 05:43:36;;;;;;;;;;;;;;;9.81;94.11;99824.41;7288842;19;20331;-65
2024/01/04 05:46:06;;;;;;;;;;;;;;;9.78;94.81;99827.41;7299765;19;19983;-65
2024/01/04 05:48:33;;;;;;;;;;;;;;;9.75;94.42;99825.91;7302397;19;20089;-66
2024/01/04 05:51:01;;;;;;;;;;;;;;;9.72;94.15;99818.41;7295305;19;19919;-66
2024/01/04 05:53:28;;;;;;;;;;;;;;;9.74;95.21;99816.44;7299676;19;19929;-66
2024/01/04 05:55:55;;;;;;;;;;;;;;;9.75;95.24;99819.88;7300028;19;20509;-65
2024/01/04 05:58:22;;;;;;;;;;;;;;;9.71;95.19;99814.13;7299702;19;20001;-65
2024/01/04 06:00:49;;;;;;;;;;;;;;;9.71;95.49;99815.94;7283841;19;20420;-65
2024/01/04 06:03:17;;;;;;;;;;;;;;;9.72;96.11;99815.78;7275461;19;19969;-66
2024/01/04 06:05:44;;;;;;;;;;;;;;;9.71;95.93;99816.75;7279251;19;19923;-66
2024/01/04 06:08:11;;;;;;;;;;;;;;;9.70;96.03;99809.88;7294106;19;19933;-64
2024/01/04 06:10:38;;;;;;;;;;;;;;;9.68;95.84;99800.53;7298202;19;19926;-65
2024/01/04 06:13:07;;;;;;;;;;;;;;;9.67;96.84;99814.66;7291796;19;20026;-65
2024/01/04 06:15:34;;;;;;;;;;;;;;;9.67;97.11;99809.41;7283861;19;20363;-65
2024/01/04 06:18:01;;;;;;;;;;;;;;;9.64;96.50;99818.44;7290267;19;21532;-66
2024/01/04 06:20:28;;;;;;;;;;;;;;;9.60;95.87;99816.34;7294024;19;20531;-66
2024/01/04 06:22:55;;;;;;;;;;;;;;;9.61;96.42;99828.47;7283883;19;19922;-66
2024/01/04 06:25:22;;;;;;;;;;;;;;;9.62;96.49;99835.34;7294365;19;19973;-66
2024/01/04 06:27:50;;;;;;;;;;;;;;;9.60;96.30;99838.16;7292027;19;21873;-65
2024/01/04 06:30:17;;;;;;;;;;;;;;;9.56;94.89;99838.66;7291456;19;19927;-65
2024/01/04 06:32:50;;;;;;;;;;;;;;;9.57;95.60;99845.56;7301192;19;20307;-65
2024/01/04 06:35:17;;;;;;;;;;;;;;;9.55;95.87;99843.09;7280412;19;19922;-66
2024/01/04 06:37:44;;;;;;;;;;;;;;;9.52;94.68;99845.25;7294174;19;20431;-66
2024/01/04 06:40:11;;;;;;;;;;;;;;;9.48;94.96;99843.97;7277207;19;20002;-67
2024/01/04 06:42:38;;;;;;;;;;;;;;;9.47;95.46;99843.13;7294348;19;20006;-65
2024/01/04 06:45:05;;;;;;;;;;;;;;;9.48;95.48;99841.34;7307102;19;20240;-66
2024/01/04 06:47:32;;;;;;;;;;;;;;;9.45;95.65;99842.47;7294535;19;19941;-65
2024/01/04 06:49:59;;;;;;;;;;;;;;;9.42;95.67;99846.28;7294168;19;19921;-65
2024/01/04 06:52:43;;;;;;;;;;;;;;;9.42;95.72;99841.03;7291938;19;19923;-65
2024/01/04 06:55:10;;;;;;;;;;;;;;;9.42;95.60;99850.69;7282729;19;19944;-65
2024/01/04 06:57:37;;;;;;;;;;;;;;;9.38;94.92;99846.78;7292732;19;20019;-66
2024/01/04 07:00:16;;;;;;;;;;;;;;;9.36;95.23;99849.56;7296345;19;19922;-67
2024/01/04 07:02:43;;;;;;;;;;;;;;;9.36;95.40;99859.25;7292313;19;19922;-67
2024/01/04 07:05:11;;;;;;;;;;;;;;;9.28;94.40;99864.53;7310322;19;19919;-66
2024/01/04 07:07:38;;;;;;;;;;;;;;;9.24;94.71;99864.06;7286294;19;19925;-65
2024/01/04 07:10:09;;;;;;;;;;;;;;;9.21;94.77;99867.00;7284892;19;20384;-66
2024/01/04 07:12:36;;;;;;;;;;;;;;;9.20;94.75;99872.41;7284511;19;19994;-67
2024/01/04 07:15:04;;;;;;;;;;;;;;;9.21;95.69;99876.69;7290715;19;21407;-66
2024/01/04 07:17:31;;;;;;;;;;;;;;;9.20;94.59;99875.03;7297749;19;19911;-66
2024/01/04 07:19:57;;;;;;;;;;;;;;;9.20;94.97;99880.28;7301477;19;19942;-66
2024/01/04 07:22:24;;;;;;;;;;;;;;;9.21;96.23;99881.94;7292262;19;20786;-65
2024/01/04 07:24:51;;;;;;;;;;;;;;;9.21;95.78;99881.94;7295113;19;19919;-65
2024/01/04 07:27:19;;;;;;;;;;;;;;;9.20;95.84;99890.78;7298444;19;19918;-66
2024/01/04 07:29:47;;;;;;;;;;;;;;;9.18;95.64;99890.16;7297040;19;19915;-65
2024/01/04 07:32:18;;;;;;;;;;;;;;;9.17;94.82;99894.56;7293045;19;19914;-66
2024/01/04 07:34:46;;;;;;;;;;;;;;;9.18;95.83;99896.22;7301122;19;19915;-65
2024/01/04 07:37:25;;;;;;;;;;;;;;;9.17;96.37;99896.38;7297763;19;20727;-66
2024/01/04 07:39:53;;;;;;;;;;;;;;;9.08;94.88;99902.63;7293422;19;19911;-66
2024/01/04 07:42:20;;;;;;;;;;;;;;;9.06;94.79;99907.22;7297886;19;22221;-66
2024/01/04 07:44:48;;;;;;;;;;;;;;;9.06;95.29;99900.16;7290191;19;19933;-66
2024/01/04 07:47:27;;;;;;;;;;;;;;;9.05;95.34;99906.38;7287728;19;19922;-65
2024/01/04 07:49:54;;;;;;;;;;;;;;;9.06;95.80;99917.69;7285926;19;19925;-66
2024/01/04 07:52:21;;;;;;;;;;;;;;;9.03;95.38;99921.50;7303218;19;20308;-65
2024/01/04 07:54:48;;;;;;;;;;;;;;;8.98;95.15;99914.13;7300228;19;19951;-65
2024/01/04 07:57:17;;;;;;;;;;;;;;;8.92;94.96;99920.03;7301751;19;19922;-66
2024/01/04 07:59:45;;;;;;;;;;;;;;;8.93;95.63;99918.22;7294548;19;20785;-68
2024/01/04 08:02:15;;;;;;;;;;;;;;;8.94;95.27;99920.66;7285028;19;21242;-67
2024/01/04 08:04:42;;;;;;;;;;;;;;;8.92;95.29;99922.66;7283679;19;19921;-66
2024/01/04 08:07:08;;;;;;;;;;;;;;;8.89;94.95;99919.50;7287420;19;20385;-66
2024/01/04 08:09:37;;;;;;;;;;;;;;;8.88;95.59;99913.47;7296723;19;19915;-65
2024/01/04 08:12:05;;;;;;;;;;;;;;;8.87;95.12;99922.31;7295944;19;19990;-66
2024/01/04 08:14:33;;;;;;;;;;;;;;;8.87;95.72;99913.63;7289541;19;19923;-67
2024/01/04 08:17:00;;;;;;;;;;;;;;;8.86;94.98;99915.44;7279236;19;19946;-65
2024/01/04 08:19:27;;;;;;;;;;;;;;;8.84;94.67;99912.13;7286256;19;19991;-65
2024/01/04 08:21:54;;;;;;;;;;;;;;;8.86;95.29;99917.22;7292613;19;20604;-66
2024/01/04 08:24:21;;;;;;;;;;;;;;;8.88;95.13;99923.13;7275468;19;19926;-67
2024/01/04 08:26:50;;;;;;;;;;;;;;;8.89;94.75;99916.88;7291995;19;19918;-66
2024/01/04 08:29:18;;;;;;;;;;;;;;;8.90;95.98;99915.91;7289741;19;19918;-65
2024/01/04 08:31:50;;;;;;;;;;;;;;;8.91;95.89;99920.19;7300118;19;20508;-66
2024/01/04 08:34:17;;;;;;;;;;;;;;;8.92;96.17;99917.41;7288026;19;19923;-66
2024/01/04 08:36:44;;;;;;;;;;;;;;;8.96;96.12;99920.50;7292308;19;20233;-68
2024/01/04 08:39:11;;;;;;;;;;;;;;;8.94;95.38;99923.28;7290755;19;19922;-65
2024/01/04 08:41:38;;;;;;;;;;;;;;;9.00;95.50;99927.06;7282281;19;19955;-66
2024/01/04 08:44:05;;;;;;;;;;;;;;;8.99;95.19;99926.22;7287304;19;20046;-67
2024/01/04 08:46:37;;;;;;;;;;;;;;;9.02;94.39;99922.47;7278257;19;21167;-66
2024/01/04 08:49:04;;;;;;;;;;;;;;;9.08;94.78;99919.19;7292772;19;19919;-65
2024/01/04 08:51:33;;;;;;;;;;;;;;;9.08;94.05;99927.06;7286088;19;21269;-65
2024/01/04 08:54:00;;;;;;;;;;;;;;;9.12;94.35;99920.50;7290349;19;19925;-66
2024/01/04 08:56:28;;;;;;;;;;;;;;;9.19;94.69;99931.16;7286964;19;20154;-65
2024/01/04 08:58:55;;;;;;;;;;;;;;;9.34;100.00;99922.44;7281525;19;20526;-65
2024/01/04 09:01:22;;;;;;;;;;;;;;;9.47;100.00;99927.16;7290485;19;19925;-66
2024/01/04 09:03:49;;;;;;;;;;;;;;;9.49;98.92;99932.25;7298800;19;19945;-66
2024/01/04 09:06:16;;;;;;;;;;;;;;;9.42;94.87;99925.03;7300651;19;20273;-65
2024/01/04 09:08:44;;;;;;;;;;;;;;;9.38;93.00;99920.28;7299933;19;19933;-65
2024/01/04 09:11:12;;;;;;;;;;;;;;;9.40;93.25;99926.16;7310633;19;19926;-66
2024/01/04 09:13:39;;;;;;;;;;;;;;;9.36;92.12;99919.63;7304354;19;19965;-66
2024/01/04 09:16:07;;;;;;;;;;;;;;;9.37;91.82;99918.66;7313117;19;20245;-66
2024/01/04 09:18:35;;;;;;;;;;;;;;;9.36;92.39;99917.81;7286432;19;19923;-65
2024/01/04 09:21:07;;;;;;;;;;;;;;;9.39;92.71;99917.50;7294848;19;19914;-65
2024/01/04 09:23:35;;;;;;;;;;;;;;;9.39;92.08;99917.50;7296313;19;20577;-66
2024/01/04 09:26:08;;;;;;;;;;;;;;;9.37;90.59;99923.91;7309183;19;19923;-65
2024/01/04 09:28:36;;;;;;;;;;;;;;;9.39;90.37;99916.69;7304947;19;20605;-66
2024/01/04 09:31:06;;;;;;;;;;;;;;;9.37;90.20;99918.66;7310711;19;19923;-65
2024/01/04 09:33:35;;;;;;;;;;;;;;;9.39;91.93;99920.13;7311134;19;20307;-65
2024/01/04 09:36:04;;;;;;;;;;;;;;;9.40;91.91;99913.03;7300380;19;19915;-66
2024/01/04 09:38:34;;;;;;;;;;;;;;;9.42;92.88;99909.28;7304954;19;19947;-65
2024/01/04 09:41:12;;;;;;;;;;;;;;;9.45;92.13;99905.47;7310124;19;20773;-66
2024/01/04 09:43:41;;;;;;;;;;;;;;;9.52;92.41;99905.63;7300552;19;19925;-66
2024/01/04 09:46:13;;;;;;;;;;;;;;;9.52;92.08;99914.34;7296836;19;19918;-65
2024/01/04 09:48:42;;;;;;;;;;;;;;;9.52;90.26;99906.47;7287995;19;20485;-65
2024/01/04 09:51:11;;;;;;;;;;;;;;;9.54;90.38;99908.94;7296797;19;19925;-66
2024/01/04 09:53:41;;;;;;;;;;;;;;;9.54;91.04;99911.56;7300696;19;20455;-67
2024/01/04 09:56:11;;;;;;;;;;;;;;;9.57;91.01;99903.31;7295876;19;21256;-66
2024/01/04 09:58:38;;;;;;;;;;;;;;;9.58;91.01;99900.53;7289934;19;19919;-66
2024/01/04 10:01:07;;;;;;;;;;;;;;;9.61;91.08;99904.63;7285994;19;21757;-66
2024/01/04 10:03:34;;;;;;;;;;;;;;;9.62;90.68;99909.72;7305469;19;19919;-67
2024/01/04 10:06:02;;;;;;;;;;;;;;;9.62;90.05;99909.72;7297259;19;20297;-65
2024/01/04 10:08:36;;;;;;;;;;;;;;;9.63;89.99;99908.72;7308760;19;19942;-66
2024/01/04 10:11:10;;;;;;;;;;;;;;;9.61;89.45;99909.88;7304612;19;20585;-65
2024/01/04 10:13:38;;;;;;;;;;;;;;;9.63;89.48;99913.97;7302987;19;19947;-66
2024/01/04 10:16:05;;;;;;;;;;;;;;;9.63;89.81;99921.84;7300520;19;19925;-65
2024/01/04 10:18:34;;;;;;;;;;;;;;;9.64;90.29;99917.44;7306064;19;19927;-66
2024/01/04 10:21:04;;;;;;;;;;;;;;;9.66;90.25;99926.75;7290038;19;20408;-66
2024/01/04 10:23:32;;;;;;;;;;;;;;;9.64;89.89;99920.88;7300401;19;19926;-65
2024/01/04 10:26:11;;;;;;;;;;;;;;;9.63;90.12;99921.84;7302523;19;19919;-66
2024/01/04 10:28:40;;;;;;;;;;;;;;;9.62;89.98;99917.59;7307621;19;19929;-66
2024/01/04 10:31:09;;;;;;;;;;;;;;;9.68;90.83;99918.72;7300035;19;20021;-69
2024/01/04 10:33:42;;;;;;;;;;;;;;;9.74;91.50;99913.63;7300285;19;19998;-67
2024/01/04 10:36:11;;;;;;;;;;;;;;;9.92;97.78;99905.47;7299452;19;20331;-66
2024/01/04 10:38:40;;;;;;;;;;;;;;;10.00;97.67;99912.53;7292590;19;20316;-67
2024/01/04 10:41:08;;;;;;;;;;;;;;;10.01;95.72;99914.13;7300941;19;19927;-65
2024/01/04 10:43:39;;;;;;;;;;;;;;;10.04;95.19;99916.44;7301396;19;20712;-66
2024/01/04 10:46:13;;;;;;;;;;;;;;;10.08;92.81;99915.09;7291835;19;19955;-66
2024/01/04 10:48:44;;;;;;;;;;;;;;;10.12;91.58;99911.13;7304653;19;19930;-66
2024/01/04 10:51:13;;;;;;;;;;;;;;;10.17;90.33;99901.75;7290748;19;20601;-66
2024/01/04 10:53:41;;;;;;;;;;;;;;;10.24;89.77;99897.47;7305838;19;19941;-65
2024/01/04 10:56:10;;;;;;;;;;;;;;;10.29;89.43;99902.19;7315413;19;20638;-67
2024/01/04 10:58:44;;;;;;;;;;;;;;;10.34;89.22;99901.69;7311056;19;19923;-66
2024/01/04 11:01:13;;;;;;;;;;;;;;;10.33;88.52;99906.09;7295196;19;20007;-66
2024/01/04 11:03:43;;;;;;;;;;;;;;;10.28;87.45;99911.06;7290418;19;20354;-66
2024/01/04 11:06:12;;;;;;;;;;;;;;;10.31;87.97;99913.34;7303714;19;19911;-65
2024/01/04 11:08:44;;;;;;;;;;;;;;;10.33;87.85;99895.59;7290000;19;19934;-65
2024/01/04 11:11:14;;;;;;;;;;;;;;;10.37;87.38;99910.03;7299980;19;19935;-65
2024/01/04 11:13:42;;;;;;;;;;;;;;;10.41;87.54;99903.44;7299997;19;19919;-66
2024/01/04 11:16:29;;;;;;;;;;;;;;;10.43;87.22;99904.06;7306608;19;19922;-66
2024/01/04 11:19:10;;;;;;;;;;;;;;;10.49;88.26;99906.00;7303144;19;20380;-66
2024/01/04 11:21:58;;;;;;;;;;;;;;;10.48;87.45;99895.66;7317573;19;19922;-67
2024/01/04 11:24:27;;;;;;;;;;;;;;;10.50;87.18;99894.50;7295839;19;20597;-65
2024/01/04 11:26:59;;;;;;;;;;;;;;;10.55;87.09;99893.97;7309498;19;20198;-65
2024/01/04 11:29:27;;;;;;;;;;;;;;;10.57;86.71;99892.78;7294551;19;20882;-67
2024/01/04 11:31:57;;;;;;;;;;;;;;;10.59;86.12;99887.34;7279346;19;19926;-65
2024/01/04 11:34:26;;;;;;;;;;;;;;;10.62;86.58;99874.66;7297355;19;19926;-66
2024/01/04 11:37:14;;;;;;;;;;;;;;;10.61;85.27;99874.84;7307572;19;20344;-65
2024/01/04 11:40:02;;;;;;;;;;;;;;;10.63;85.62;99857.06;7300562;19;19982;-66
2024/01/04 11:42:36;;;;;;;;;;;;;;;10.65;85.57;99849.84;7300647;19;19918;-64
2024/01/04 11:45:15;;;;;;;;;;;;;;;10.66;85.32;99847.03;7289497;19;19915;-67
2024/01/04 11:47:44;;;;;;;;;;;;;;;10.66;84.94;99847.03;7312636;19;19923;-67
2024/01/04 11:50:18;;;;;;;;;;;;;;;10.76;86.12;99838.88;7295734;19;20287;-66
2024/01/04 11:52:52;;;;;;;;;;;;;;;10.78;85.66;99839.50;7285397;19;19941;-67
2024/01/04 11:55:29;;;;;;;;;;;;;;;10.83;85.37;99836.34;7301476;19;19918;-67
2024/01/04 11:58:11;;;;;;;;;;;;;;;10.88;84.88;99829.53;7280937;19;19919;-67
2024/01/04 12:00:49;;;;;;;;;;;;;;;10.89;84.69;99836.44;7304109;19;20494;-67
2024/01/04 12:03:20;;;;;;;;;;;;;;;10.94;84.81;99825.38;7288458;19;20262;-69
2024/01/04 12:05:51;;;;;;;;;;;;;;;10.94;86.83;99820.13;7291264;19;19946;-65
2024/01/04 12:08:24;;;;;;;;;;;;;;;10.93;85.64;99816.66;7301255;19;20215;-66
2024/01/04 12:10:53;;;;;;;;;;;;;;;10.91;85.29;99809.97;7289545;19;19926;-65
2024/01/04 12:13:20;;;;;;;;;;;;;;;10.93;86.03;99814.03;7306852;19;19917;-65
2024/01/04 12:15:49;;;;;;;;;;;;;;;10.93;85.85;99795.59;7298019;19;20186;-66
2024/01/04 12:18:21;;;;;;;;;;;;;;;10.96;85.95;99797.91;7289854;19;20000;-66
2024/01/04 12:20:53;;;;;;;;;;;;;;;10.98;86.23;99790.63;7289101;19;19915;-67
2024/01/04 12:23:32;;;;;;;;;;;;;;;10.94;85.41;99791.16;7300886;19;20201;-67
2024/01/04 12:26:00;;;;;;;;;;;;;;;10.93;84.76;99790.34;7303945;19;19930;-67
2024/01/04 12:28:27;;;;;;;;;;;;;;;10.98;85.67;99784.53;7297299;19;19926;-67
2024/01/04 12:30:54;;;;;;;;;;;;;;;10.99;84.42;99786.19;7307983;19;19919;-66
2024/01/04 12:33:22;;;;;;;;;;;;;;;10.99;84.27;99781.72;7291850;19;20287;-67
2024/01/04 12:35:59;;;;;;;;;;;;;;;10.94;83.46;99768.28;7286551;19;20027;-67
2024/01/04 12:38:28;;;;;;;;;;;;;;;10.94;83.78;99773.56;7304829;19;20006;-67
2024/01/04 12:40:59;;;;;;;;;;;;;;;10.95;83.41;99761.22;7299276;19;19975;-68
2024/01/04 12:43:27;;;;;;;;;;;;;;;10.95;83.57;99763.84;7295366;19;19922;-67
2024/01/04 12:46:04;;;;;;;;;;;;;;;10.92;84.07;99759.75;7303853;19;19970;-66
2024/01/04 12:48:32;;;;;;;;;;;;;;;10.94;83.48;99754.31;7295586;19;19918;-66
2024/01/04 12:51:14;;;;;;;;;;;;;;;10.89;83.12;99739.06;7304232;19;20295;-66
2024/01/04 12:53:44;;;;;;;;;;;;;;;10.86;83.04;99739.47;7299216;19;20054;-66
2024/01/04 12:56:14;;;;;;;;;;;;;;;10.87;83.08;99737.63;7296700;19;19927;-66
2024/01/04 12:58:42;;;;;;;;;;;;;;;10.89;83.37;99733.81;7305987;19;19927;-68